sensor_id;sensor_type;location;lat;lon;timestamp;temperature;humidity
63289;DHT22;49412;48.162;-1.978;2022-12-07T00:02:15;3.70;99.90
63289;DHT22;49412;48.162;-1.978;2022-12-07T00:04:41;3.80;99.90
63289;DHT22;49412;48.162;-1.978;2022-12-07T00:07:06;3.70;99.90
63289;DHT22;49412;48.162;-1.978;2022-12-07T00:09:32;3.70;99.90
63289;DHT22;49412;48.162;-1.978;2022-12-07T00:11:57;3.70;99.90
63289;DHT22;49412;48.162;-1.978;2022-12-07T00:14:23;3.60;99.90
63289;DHT22;49412;48.162;-1.978;2022-12-07T00:16:49;3.60;99.90
63289;DHT22;49412;48.162;-1.978;2022-12-07T00:19:15;3.60;99.90
63289;DHT22;49412;48.162;-1.978;2022-12-07T00:21:41;3.50;99.90
63289;DHT22;49412;48.162;-1.978;2022-12-07T00:24:07;3.40;99.90
63289;DHT22;49412;48.162;-1.978;2022-12-07T00:26:33;3.20;99.90
63289;DHT22;49412;48.162;-1.978;2022-12-07T00:29:00;3.10;99.90
63289;DHT22;49412;48.162;-1.978;2022-12-07T00:31:27;3.10;99.90
63289;DHT22;49412;48.162;-1.978;2022-12-07T00:33:53;3.10;99.90
63289;DHT22;49412;48.162;-1.978;2022-12-07T00:36:20;3.20;99.90
63289;DHT22;49412;48.162;-1.978;2022-12-07T00:38:45;3.30;99.90
63289;DHT22;49412;48.162;-1.978;2022-12-07T00:41:18;3.30;99.90
63289;DHT22;49412;48.162;-1.978;2022-12-07T00:43:45;3.30;99.90
63289;DHT22;49412;48.162;-1.978;2022-12-07T00:46:11;3.10;99.90
63289;DHT22;49412;48.162;-1.978;2022-12-07T00:48:37;3.10;99.90
63289;DHT22;49412;48.162;-1.978;2022-12-07T00:51:03;3.10;99.90
63289;DHT22;49412;48.162;-1.978;2022-12-07T00:53:29;3.10;99.90
63289;DHT22;49412;48.162;-1.978;2022-12-07T00:55:55;3.10;99.90
63289;DHT22;49412;48.162;-1.978;2022-12-07T00:58:21;3.00;99.90
63289;DHT22;49412;48.162;-1.978;2022-12-07T01:00:47;2.90;99.90
63289;DHT22;49412;48.162;-1.978;2022-12-07T01:03:13;2.90;99.90
63289;DHT22;49412;48.162;-1.978;2022-12-07T01:05:39;2.90;99.90
63289;DHT22;49412;48.162;-1.978;2022-12-07T01:08:05;2.90;99.90
63289;DHT22;49412;48.162;-1.978;2022-12-07T01:10:32;2.90;99.90
63289;DHT22;49412;48.162;-1.978;2022-12-07T01:12:58;2.70;99.90
63289;DHT22;49412;48.162;-1.978;2022-12-07T01:15:24;2.80;99.90
63289;DHT22;49412;48.162;-1.978;2022-12-07T01:17:50;2.70;99.90
63289;DHT22;49412;48.162;-1.978;2022-12-07T01:20:15;2.60;99.90
63289;DHT22;49412;48.162;-1.978;2022-12-07T01:22:41;2.50;99.90
63289;DHT22;49412;48.162;-1.978;2022-12-07T01:25:08;2.30;99.90
63289;DHT22;49412;48.162;-1.978;2022-12-07T01:27:33;2.20;99.90
63289;DHT22;49412;48.162;-1.978;2022-12-07T01:29:59;2.10;99.90
63289;DHT22;49412;48.162;-1.978;2022-12-07T01:32:25;2.10;99.90
63289;DHT22;49412;48.162;-1.978;2022-12-07T01:34:51;2.20;99.90
63289;DHT22;49412;48.162;-1.978;2022-12-07T01:37:16;2.20;99.90
63289;DHT22;49412;48.162;-1.978;2022-12-07T01:39:42;2.30;99.90
63289;DHT22;49412;48.162;-1.978;2022-12-07T01:42:11;2.30;99.90
63289;DHT22;49412;48.162;-1.978;2022-12-07T01:47:20;2.20;99.90
63289;DHT22;49412;48.162;-1.978;2022-12-07T01:49:47;2.20;99.90
63289;DHT22;49412;48.162;-1.978;2022-12-07T01:54:39;2.10;99.90
63289;DHT22;49412;48.162;-1.978;2022-12-07T01:57:05;2.10;99.90
63289;DHT22;49412;48.162;-1.978;2022-12-07T01:59:32;2.00;99.90
63289;DHT22;49412;48.162;-1.978;2022-12-07T02:01:57;2.10;99.90
63289;DHT22;49412;48.162;-1.978;2022-12-07T02:04:23;2.00;99.90
63289;DHT22;49412;48.162;-1.978;2022-12-07T02:06:49;2.10;99.90
63289;DHT22;49412;48.162;-1.978;2022-12-07T02:09:15;2.30;99.90
63289;DHT22;49412;48.162;-1.978;2022-12-07T02:11:40;2.20;99.90
63289;DHT22;49412;48.162;-1.978;2022-12-07T02:14:06;2.10;99.90
63289;DHT22;49412;48.162;-1.978;2022-12-07T02:16:35;2.10;99.90
63289;DHT22;49412;48.162;-1.978;2022-12-07T02:34:49;2.00;99.90
63289;DHT22;49412;48.162;-1.978;2022-12-07T02:39:55;2.00;99.90
63289;DHT22;49412;48.162;-1.978;2022-12-07T02:42:25;2.00;99.90
63289;DHT22;49412;48.162;-1.978;2022-12-07T02:44:54;2.10;99.90
63289;DHT22;49412;48.162;-1.978;2022-12-07T02:47:19;2.10;99.90
63289;DHT22;49412;48.162;-1.978;2022-12-07T02:49:46;2.00;99.90
63289;DHT22;49412;48.162;-1.978;2022-12-07T02:52:12;2.00;99.90
63289;DHT22;49412;48.162;-1.978;2022-12-07T02:54:38;1.90;99.90
63289;DHT22;49412;48.162;-1.978;2022-12-07T02:57:11;2.00;99.90
63289;DHT22;49412;48.162;-1.978;2022-12-07T03:02:17;1.80;99.90
63289;DHT22;49412;48.162;-1.978;2022-12-07T03:07:42;1.90;99.90
63289;DHT22;49412;48.162;-1.978;2022-12-07T03:15:27;2.00;99.90
63289;DHT22;49412;48.162;-1.978;2022-12-07T03:17:54;2.00;99.90
63289;DHT22;49412;48.162;-1.978;2022-12-07T03:20:21;1.90;99.90
63289;DHT22;49412;48.162;-1.978;2022-12-07T03:22:48;2.00;99.90
63289;DHT22;49412;48.162;-1.978;2022-12-07T03:25:15;1.90;99.90
63289;DHT22;49412;48.162;-1.978;2022-12-07T03:28:01;1.70;99.90
63289;DHT22;49412;48.162;-1.978;2022-12-07T03:30:33;1.70;99.90
63289;DHT22;49412;48.162;-1.978;2022-12-07T03:33:01;1.50;99.90
63289;DHT22;49412;48.162;-1.978;2022-12-07T03:35:33;1.50;99.90
63289;DHT22;49412;48.162;-1.978;2022-12-07T03:42:53;1.60;99.90
63289;DHT22;49412;48.162;-1.978;2022-12-07T03:45:21;1.70;99.90
63289;DHT22;49412;48.162;-1.978;2022-12-07T03:47:59;1.60;99.90
63289;DHT22;49412;48.162;-1.978;2022-12-07T03:50:38;1.70;99.90
63289;DHT22;49412;48.162;-1.978;2022-12-07T03:53:29;1.80;99.90
63289;DHT22;49412;48.162;-1.978;2022-12-07T03:55:53;1.90;99.90
63289;DHT22;49412;48.162;-1.978;2022-12-07T03:58:20;1.90;99.90
63289;DHT22;49412;48.162;-1.978;2022-12-07T04:00:47;1.90;99.90
63289;DHT22;49412;48.162;-1.978;2022-12-07T04:03:12;1.80;99.90
63289;DHT22;49412;48.162;-1.978;2022-12-07T04:05:38;1.70;99.90
63289;DHT22;49412;48.162;-1.978;2022-12-07T04:08:04;1.70;99.90
63289;DHT22;49412;48.162;-1.978;2022-12-07T04:10:30;1.50;99.90
63289;DHT22;49412;48.162;-1.978;2022-12-07T04:12:56;1.10;99.90
63289;DHT22;49412;48.162;-1.978;2022-12-07T04:15:21;1.20;99.90
63289;DHT22;49412;48.162;-1.978;2022-12-07T04:17:47;1.30;99.90
63289;DHT22;49412;48.162;-1.978;2022-12-07T04:20:13;1.40;99.90
63289;DHT22;49412;48.162;-1.978;2022-12-07T04:22:38;1.40;99.90
63289;DHT22;49412;48.162;-1.978;2022-12-07T04:25:04;1.40;99.90
63289;DHT22;49412;48.162;-1.978;2022-12-07T04:27:30;1.00;99.90
63289;DHT22;49412;48.162;-1.978;2022-12-07T04:29:55;0.90;99.90
63289;DHT22;49412;48.162;-1.978;2022-12-07T04:32:21;1.20;99.90
63289;DHT22;49412;48.162;-1.978;2022-12-07T04:34:47;1.30;99.90
63289;DHT22;49412;48.162;-1.978;2022-12-07T04:37:12;1.40;99.90
63289;DHT22;49412;48.162;-1.978;2022-12-07T04:39:38;1.30;99.90
63289;DHT22;49412;48.162;-1.978;2022-12-07T04:42:04;1.30;99.90
63289;DHT22;49412;48.162;-1.978;2022-12-07T04:44:30;1.40;99.90
63289;DHT22;49412;48.162;-1.978;2022-12-07T04:46:56;1.40;99.90
63289;DHT22;49412;48.162;-1.978;2022-12-07T04:49:22;1.20;99.90
63289;DHT22;49412;48.162;-1.978;2022-12-07T04:51:48;1.30;99.90
63289;DHT22;49412;48.162;-1.978;2022-12-07T04:54:14;1.30;99.90
63289;DHT22;49412;48.162;-1.978;2022-12-07T04:56:40;1.40;99.90
63289;DHT22;49412;48.162;-1.978;2022-12-07T04:59:06;1.20;99.90
63289;DHT22;49412;48.162;-1.978;2022-12-07T05:01:31;0.90;99.90
63289;DHT22;49412;48.162;-1.978;2022-12-07T05:03:57;0.80;99.90
63289;DHT22;49412;48.162;-1.978;2022-12-07T05:06:23;0.70;99.90
63289;DHT22;49412;48.162;-1.978;2022-12-07T05:08:49;0.70;99.90
63289;DHT22;49412;48.162;-1.978;2022-12-07T05:11:15;0.60;99.90
63289;DHT22;49412;48.162;-1.978;2022-12-07T05:13:59;0.60;99.90
63289;DHT22;49412;48.162;-1.978;2022-12-07T05:16:25;0.90;99.90
63289;DHT22;49412;48.162;-1.978;2022-12-07T05:18:51;0.80;99.90
63289;DHT22;49412;48.162;-1.978;2022-12-07T05:21:16;1.00;99.90
63289;DHT22;49412;48.162;-1.978;2022-12-07T05:23:42;1.20;99.90
63289;DHT22;49412;48.162;-1.978;2022-12-07T05:26:08;1.30;99.90
63289;DHT22;49412;48.162;-1.978;2022-12-07T05:28:33;1.20;99.90
63289;DHT22;49412;48.162;-1.978;2022-12-07T05:30:59;1.20;99.90
63289;DHT22;49412;48.162;-1.978;2022-12-07T05:33:24;1.20;99.90
63289;DHT22;49412;48.162;-1.978;2022-12-07T05:35:50;1.20;99.90
63289;DHT22;49412;48.162;-1.978;2022-12-07T05:38:15;1.10;99.90
63289;DHT22;49412;48.162;-1.978;2022-12-07T05:40:41;1.10;99.90
63289;DHT22;49412;48.162;-1.978;2022-12-07T05:43:07;1.20;99.90
63289;DHT22;49412;48.162;-1.978;2022-12-07T05:45:32;1.20;99.90
63289;DHT22;49412;48.162;-1.978;2022-12-07T05:47:58;0.90;99.90
63289;DHT22;49412;48.162;-1.978;2022-12-07T05:50:23;0.80;99.90
63289;DHT22;49412;48.162;-1.978;2022-12-07T05:52:49;0.90;99.90
63289;DHT22;49412;48.162;-1.978;2022-12-07T05:55:15;0.90;99.90
63289;DHT22;49412;48.162;-1.978;2022-12-07T05:57:40;0.90;99.90
63289;DHT22;49412;48.162;-1.978;2022-12-07T06:00:26;0.80;99.90
63289;DHT22;49412;48.162;-1.978;2022-12-07T06:02:51;0.40;99.90
63289;DHT22;49412;48.162;-1.978;2022-12-07T06:05:17;0.40;99.90
63289;DHT22;49412;48.162;-1.978;2022-12-07T06:07:42;0.50;99.90
63289;DHT22;49412;48.162;-1.978;2022-12-07T06:10:08;0.60;99.90
63289;DHT22;49412;48.162;-1.978;2022-12-07T06:12:34;0.60;99.90
63289;DHT22;49412;48.162;-1.978;2022-12-07T06:14:59;0.40;99.90
63289;DHT22;49412;48.162;-1.978;2022-12-07T06:17:25;0.50;99.90
63289;DHT22;49412;48.162;-1.978;2022-12-07T06:19:51;0.60;99.90
63289;DHT22;49412;48.162;-1.978;2022-12-07T06:22:16;0.60;99.90
63289;DHT22;49412;48.162;-1.978;2022-12-07T06:24:42;0.60;99.90
63289;DHT22;49412;48.162;-1.978;2022-12-07T06:27:08;0.50;99.90
63289;DHT22;49412;48.162;-1.978;2022-12-07T06:29:34;0.30;99.90
63289;DHT22;49412;48.162;-1.978;2022-12-07T06:32:00;0.20;99.90
63289;DHT22;49412;48.162;-1.978;2022-12-07T06:34:26;0.20;99.90
63289;DHT22;49412;48.162;-1.978;2022-12-07T06:36:51;0.10;99.90
63289;DHT22;49412;48.162;-1.978;2022-12-07T06:39:19;0.00;99.90
63289;DHT22;49412;48.162;-1.978;2022-12-07T06:41:45;-0.10;99.90
63289;DHT22;49412;48.162;-1.978;2022-12-07T06:44:10;0.10;99.90
63289;DHT22;49412;48.162;-1.978;2022-12-07T06:46:36;0.20;99.90
63289;DHT22;49412;48.162;-1.978;2022-12-07T06:49:02;0.40;99.90
63289;DHT22;49412;48.162;-1.978;2022-12-07T06:51:28;0.30;99.90
63289;DHT22;49412;48.162;-1.978;2022-12-07T06:53:53;0.10;99.90
63289;DHT22;49412;48.162;-1.978;2022-12-07T06:56:19;0.00;99.90
63289;DHT22;49412;48.162;-1.978;2022-12-07T06:58:44;0.00;99.90
63289;DHT22;49412;48.162;-1.978;2022-12-07T07:01:14;0.00;99.90
63289;DHT22;49412;48.162;-1.978;2022-12-07T07:03:40;0.20;99.90
63289;DHT22;49412;48.162;-1.978;2022-12-07T07:06:06;0.40;99.90
63289;DHT22;49412;48.162;-1.978;2022-12-07T07:08:33;0.50;99.90
63289;DHT22;49412;48.162;-1.978;2022-12-07T07:10:58;0.50;99.90
63289;DHT22;49412;48.162;-1.978;2022-12-07T07:13:24;0.30;99.90
63289;DHT22;49412;48.162;-1.978;2022-12-07T07:15:50;0.20;99.90
63289;DHT22;49412;48.162;-1.978;2022-12-07T07:18:15;0.30;99.90
63289;DHT22;49412;48.162;-1.978;2022-12-07T07:20:41;0.40;99.90
63289;DHT22;49412;48.162;-1.978;2022-12-07T07:23:06;0.60;99.90
63289;DHT22;49412;48.162;-1.978;2022-12-07T07:25:32;0.80;99.90
63289;DHT22;49412;48.162;-1.978;2022-12-07T07:27:58;1.10;99.90
63289;DHT22;49412;48.162;-1.978;2022-12-07T07:30:24;1.30;99.90
63289;DHT22;49412;48.162;-1.978;2022-12-07T07:32:50;1.20;99.90
63289;DHT22;49412;48.162;-1.978;2022-12-07T07:35:16;1.10;99.90
63289;DHT22;49412;48.162;-1.978;2022-12-07T07:37:41;1.10;99.90
63289;DHT22;49412;48.162;-1.978;2022-12-07T07:40:08;1.30;99.90
63289;DHT22;49412;48.162;-1.978;2022-12-07T07:42:33;1.40;99.90
63289;DHT22;49412;48.162;-1.978;2022-12-07T07:44:59;1.50;99.90
63289;DHT22;49412;48.162;-1.978;2022-12-07T07:47:25;1.60;99.90
63289;DHT22;49412;48.162;-1.978;2022-12-07T07:49:51;1.60;99.90
63289;DHT22;49412;48.162;-1.978;2022-12-07T07:52:17;1.50;99.90
63289;DHT22;49412;48.162;-1.978;2022-12-07T07:54:42;1.60;99.90
63289;DHT22;49412;48.162;-1.978;2022-12-07T07:57:08;1.50;99.90
63289;DHT22;49412;48.162;-1.978;2022-12-07T07:59:33;1.30;99.90
63289;DHT22;49412;48.162;-1.978;2022-12-07T08:01:59;1.60;99.90
63289;DHT22;49412;48.162;-1.978;2022-12-07T08:04:24;2.00;99.90
63289;DHT22;49412;48.162;-1.978;2022-12-07T08:06:51;2.10;99.90
63289;DHT22;49412;48.162;-1.978;2022-12-07T08:09:17;2.20;99.90
63289;DHT22;49412;48.162;-1.978;2022-12-07T08:11:43;2.10;99.90
63289;DHT22;49412;48.162;-1.978;2022-12-07T08:14:10;2.00;99.90
63289;DHT22;49412;48.162;-1.978;2022-12-07T08:16:37;2.10;99.90
63289;DHT22;49412;48.162;-1.978;2022-12-07T08:19:04;2.00;99.90
63289;DHT22;49412;48.162;-1.978;2022-12-07T08:21:29;2.10;99.90
63289;DHT22;49412;48.162;-1.978;2022-12-07T08:23:56;2.10;99.90
63289;DHT22;49412;48.162;-1.978;2022-12-07T08:26:22;2.10;99.90
63289;DHT22;49412;48.162;-1.978;2022-12-07T08:28:47;2.20;99.90
63289;DHT22;49412;48.162;-1.978;2022-12-07T08:31:14;2.00;99.90
63289;DHT22;49412;48.162;-1.978;2022-12-07T08:33:40;2.80;99.90
63289;DHT22;49412;48.162;-1.978;2022-12-07T08:36:09;4.40;99.90
63289;DHT22;49412;48.162;-1.978;2022-12-07T08:38:36;5.20;99.90
63289;DHT22;49412;48.162;-1.978;2022-12-07T08:41:01;5.30;99.90
63289;DHT22;49412;48.162;-1.978;2022-12-07T08:43:28;5.10;99.90
63289;DHT22;49412;48.162;-1.978;2022-12-07T08:45:59;4.50;99.90
63289;DHT22;49412;48.162;-1.978;2022-12-07T08:48:29;4.60;99.90
63289;DHT22;49412;48.162;-1.978;2022-12-07T08:50:55;4.90;99.90
63289;DHT22;49412;48.162;-1.978;2022-12-07T08:53:20;4.50;99.90
63289;DHT22;49412;48.162;-1.978;2022-12-07T08:55:46;4.40;99.90
63289;DHT22;49412;48.162;-1.978;2022-12-07T08:58:13;4.30;99.90
63289;DHT22;49412;48.162;-1.978;2022-12-07T09:00:38;4.40;99.90
63289;DHT22;49412;48.162;-1.978;2022-12-07T09:03:04;4.30;99.90
63289;DHT22;49412;48.162;-1.978;2022-12-07T09:05:29;4.70;99.90
63289;DHT22;49412;48.162;-1.978;2022-12-07T09:07:56;4.90;99.90
63289;DHT22;49412;48.162;-1.978;2022-12-07T09:10:23;4.90;99.90
63289;DHT22;49412;48.162;-1.978;2022-12-07T09:12:49;4.70;99.90
63289;DHT22;49412;48.162;-1.978;2022-12-07T09:15:15;6.80;99.90
63289;DHT22;49412;48.162;-1.978;2022-12-07T09:17:40;9.90;88.60
63289;DHT22;49412;48.162;-1.978;2022-12-07T09:20:06;12.00;54.00
63289;DHT22;49412;48.162;-1.978;2022-12-07T09:22:32;13.70;1.00
63289;DHT22;49412;48.162;-1.978;2022-12-07T09:24:58;14.50;1.00
63289;DHT22;49412;48.162;-1.978;2022-12-07T09:27:24;14.40;1.00
63289;DHT22;49412;48.162;-1.978;2022-12-07T09:29:50;14.40;1.00
63289;DHT22;49412;48.162;-1.978;2022-12-07T09:32:15;15.00;1.00
63289;DHT22;49412;48.162;-1.978;2022-12-07T09:34:41;15.20;1.00
63289;DHT22;49412;48.162;-1.978;2022-12-07T09:37:07;15.00;1.00
63289;DHT22;49412;48.162;-1.978;2022-12-07T09:39:32;15.20;1.00
63289;DHT22;49412;48.162;-1.978;2022-12-07T09:41:58;15.20;1.00
63289;DHT22;49412;48.162;-1.978;2022-12-07T09:44:25;15.10;1.00
63289;DHT22;49412;48.162;-1.978;2022-12-07T09:46:51;15.10;1.00
63289;DHT22;49412;48.162;-1.978;2022-12-07T09:49:21;14.40;1.00
63289;DHT22;49412;48.162;-1.978;2022-12-07T09:54:33;16.40;1.00
63289;DHT22;49412;48.162;-1.978;2022-12-07T09:57:00;16.00;1.00
63289;DHT22;49412;48.162;-1.978;2022-12-07T09:59:26;17.00;1.00
63289;DHT22;49412;48.162;-1.978;2022-12-07T10:01:52;16.50;1.00
63289;DHT22;49412;48.162;-1.978;2022-12-07T10:04:21;15.80;1.00
63289;DHT22;49412;48.162;-1.978;2022-12-07T10:06:47;16.00;1.00
63289;DHT22;49412;48.162;-1.978;2022-12-07T10:09:14;16.20;1.00
63289;DHT22;49412;48.162;-1.978;2022-12-07T10:11:59;16.70;1.00
63289;DHT22;49412;48.162;-1.978;2022-12-07T10:14:24;17.10;1.00
63289;DHT22;49412;48.162;-1.978;2022-12-07T10:16:52;18.50;1.00
63289;DHT22;49412;48.162;-1.978;2022-12-07T10:19:31;20.80;1.00
63289;DHT22;49412;48.162;-1.978;2022-12-07T10:22:07;22.10;1.00
63289;DHT22;49412;48.162;-1.978;2022-12-07T10:24:34;22.80;1.00
63289;DHT22;49412;48.162;-1.978;2022-12-07T10:26:59;23.00;1.00
63289;DHT22;49412;48.162;-1.978;2022-12-07T10:29:32;22.50;1.00
63289;DHT22;49412;48.162;-1.978;2022-12-07T10:32:02;22.30;1.00
63289;DHT22;49412;48.162;-1.978;2022-12-07T10:42:19;21.30;1.00
63289;DHT22;49412;48.162;-1.978;2022-12-07T10:44:44;22.10;1.00
63289;DHT22;49412;48.162;-1.978;2022-12-07T10:47:21;21.70;1.00
63289;DHT22;49412;48.162;-1.978;2022-12-07T11:05:13;19.80;1.00
63289;DHT22;49412;48.162;-1.978;2022-12-07T11:10:34;20.20;1.00
63289;DHT22;49412;48.162;-1.978;2022-12-07T11:25:44;20.80;1.00
63289;DHT22;49412;48.162;-1.978;2022-12-07T11:33:46;20.70;1.00
63289;DHT22;49412;48.162;-1.978;2022-12-07T11:38:53;20.40;1.00
63289;DHT22;49412;48.162;-1.978;2022-12-07T11:41:28;20.20;1.00
63289;DHT22;49412;48.162;-1.978;2022-12-07T11:44:11;20.80;1.00
63289;DHT22;49412;48.162;-1.978;2022-12-07T11:46:49;20.90;1.00
63289;DHT22;49412;48.162;-1.978;2022-12-07T11:51:49;21.00;1.00
63289;DHT22;49412;48.162;-1.978;2022-12-07T11:54:18;20.20;1.00
63289;DHT22;49412;48.162;-1.978;2022-12-07T11:56:47;19.80;1.00
63289;DHT22;49412;48.162;-1.978;2022-12-07T11:59:16;19.30;1.00
63289;DHT22;49412;48.162;-1.978;2022-12-07T12:01:48;19.90;1.00
63289;DHT22;49412;48.162;-1.978;2022-12-07T12:06:40;19.30;1.00
63289;DHT22;49412;48.162;-1.978;2022-12-07T12:09:17;19.20;1.00
63289;DHT22;49412;48.162;-1.978;2022-12-07T12:17:07;18.20;1.00
63289;DHT22;49412;48.162;-1.978;2022-12-07T12:22:26;17.80;1.00
63289;DHT22;49412;48.162;-1.978;2022-12-07T12:24:50;18.40;1.00
63289;DHT22;49412;48.162;-1.978;2022-12-07T12:29:50;18.50;1.00
63289;DHT22;49412;48.162;-1.978;2022-12-07T12:32:17;17.90;1.00
63289;DHT22;49412;48.162;-1.978;2022-12-07T12:42:45;16.70;1.00
63289;DHT22;49412;48.162;-1.978;2022-12-07T12:45:17;17.30;1.00
63289;DHT22;49412;48.162;-1.978;2022-12-07T12:47:56;18.50;1.00
63289;DHT22;49412;48.162;-1.978;2022-12-07T12:50:36;18.30;1.00
63289;DHT22;49412;48.162;-1.978;2022-12-07T12:58:36;17.00;1.00
63289;DHT22;49412;48.162;-1.978;2022-12-07T13:03:52;16.50;1.00
63289;DHT22;49412;48.162;-1.978;2022-12-07T13:06:19;16.40;1.00
63289;DHT22;49412;48.162;-1.978;2022-12-07T13:08:45;15.60;1.00
63289;DHT22;49412;48.162;-1.978;2022-12-07T13:11:18;15.40;1.00
63289;DHT22;49412;48.162;-1.978;2022-12-07T13:13:45;15.20;1.00
63289;DHT22;49412;48.162;-1.978;2022-12-07T13:18:37;14.10;1.00
63289;DHT22;49412;48.162;-1.978;2022-12-07T13:21:40;16.00;1.00
63289;DHT22;49412;48.162;-1.978;2022-12-07T13:28:47;18.30;1.00
63289;DHT22;49412;48.162;-1.978;2022-12-07T13:31:24;19.00;1.00
63289;DHT22;49412;48.162;-1.978;2022-12-07T13:33:54;18.90;1.00
63289;DHT22;49412;48.162;-1.978;2022-12-07T13:36:23;19.70;1.00
63289;DHT22;49412;48.162;-1.978;2022-12-07T13:38:53;19.70;1.00
63289;DHT22;49412;48.162;-1.978;2022-12-07T13:41:20;19.80;1.00
63289;DHT22;49412;48.162;-1.978;2022-12-07T13:43:53;20.30;1.00
63289;DHT22;49412;48.162;-1.978;2022-12-07T13:46:20;19.20;1.00
63289;DHT22;49412;48.162;-1.978;2022-12-07T13:48:49;18.60;1.00
63289;DHT22;49412;48.162;-1.978;2022-12-07T13:51:25;19.50;1.00
63289;DHT22;49412;48.162;-1.978;2022-12-07T13:53:55;19.50;1.00
63289;DHT22;49412;48.162;-1.978;2022-12-07T13:56:21;19.60;1.00
63289;DHT22;49412;48.162;-1.978;2022-12-07T13:58:47;20.40;1.00
63289;DHT22;49412;48.162;-1.978;2022-12-07T14:01:13;19.10;1.00
63289;DHT22;49412;48.162;-1.978;2022-12-07T14:03:39;18.90;1.00
63289;DHT22;49412;48.162;-1.978;2022-12-07T14:06:26;20.50;1.00
63289;DHT22;49412;48.162;-1.978;2022-12-07T14:08:51;20.00;1.00
63289;DHT22;49412;48.162;-1.978;2022-12-07T14:11:30;20.60;1.00
63289;DHT22;49412;48.162;-1.978;2022-12-07T14:13:58;21.90;1.00
63289;DHT22;49412;48.162;-1.978;2022-12-07T14:18:50;21.50;1.00
63289;DHT22;49412;48.162;-1.978;2022-12-07T14:21:16;21.40;1.00
63289;DHT22;49412;48.162;-1.978;2022-12-07T14:23:45;21.00;1.00
63289;DHT22;49412;48.162;-1.978;2022-12-07T14:26:27;20.80;1.00
63289;DHT22;49412;48.162;-1.978;2022-12-07T14:28:52;20.70;1.00
63289;DHT22;49412;48.162;-1.978;2022-12-07T14:31:18;20.40;1.00
63289;DHT22;49412;48.162;-1.978;2022-12-07T14:33:46;20.20;1.00
63289;DHT22;49412;48.162;-1.978;2022-12-07T14:36:13;20.30;1.00
63289;DHT22;49412;48.162;-1.978;2022-12-07T14:38:39;20.20;1.00
63289;DHT22;49412;48.162;-1.978;2022-12-07T14:41:05;20.50;1.00
63289;DHT22;49412;48.162;-1.978;2022-12-07T14:43:50;20.70;1.00
63289;DHT22;49412;48.162;-1.978;2022-12-07T14:46:15;20.30;1.00
63289;DHT22;49412;48.162;-1.978;2022-12-07T14:48:41;20.20;1.00
63289;DHT22;49412;48.162;-1.978;2022-12-07T14:51:07;19.70;1.00
63289;DHT22;49412;48.162;-1.978;2022-12-07T14:53:35;19.90;1.00
63289;DHT22;49412;48.162;-1.978;2022-12-07T14:56:02;19.70;1.00
63289;DHT22;49412;48.162;-1.978;2022-12-07T14:58:30;19.30;1.00
63289;DHT22;49412;48.162;-1.978;2022-12-07T15:00:56;19.50;1.00
63289;DHT22;49412;48.162;-1.978;2022-12-07T15:03:21;19.90;1.00
63289;DHT22;49412;48.162;-1.978;2022-12-07T15:05:47;19.40;1.00
63289;DHT22;49412;48.162;-1.978;2022-12-07T15:08:12;18.80;1.00
63289;DHT22;49412;48.162;-1.978;2022-12-07T15:10:38;18.00;1.00
63289;DHT22;49412;48.162;-1.978;2022-12-07T15:13:05;17.20;1.00
63289;DHT22;49412;48.162;-1.978;2022-12-07T15:15:51;17.20;1.00
63289;DHT22;49412;48.162;-1.978;2022-12-07T15:18:17;16.60;1.00
63289;DHT22;49412;48.162;-1.978;2022-12-07T15:20:43;16.30;1.00
63289;DHT22;49412;48.162;-1.978;2022-12-07T15:23:09;16.70;1.00
63289;DHT22;49412;48.162;-1.978;2022-12-07T15:25:35;16.60;1.00
63289;DHT22;49412;48.162;-1.978;2022-12-07T15:28:00;15.90;1.00
63289;DHT22;49412;48.162;-1.978;2022-12-07T15:30:26;15.70;1.00
63289;DHT22;49412;48.162;-1.978;2022-12-07T15:32:53;15.70;1.00
63289;DHT22;49412;48.162;-1.978;2022-12-07T15:35:20;15.90;1.00
63289;DHT22;49412;48.162;-1.978;2022-12-07T15:37:46;15.90;1.00
63289;DHT22;49412;48.162;-1.978;2022-12-07T15:40:12;15.60;1.00
63289;DHT22;49412;48.162;-1.978;2022-12-07T15:42:37;15.40;1.00
63289;DHT22;49412;48.162;-1.978;2022-12-07T15:45:04;14.50;1.00
63289;DHT22;49412;48.162;-1.978;2022-12-07T15:47:34;13.30;1.00
63289;DHT22;49412;48.162;-1.978;2022-12-07T15:50:02;12.40;1.00
63289;DHT22;49412;48.162;-1.978;2022-12-07T15:52:28;11.50;1.00
63289;DHT22;49412;48.162;-1.978;2022-12-07T15:54:53;11.10;7.90
63289;DHT22;49412;48.162;-1.978;2022-12-07T15:57:19;10.70;15.00
63289;DHT22;49412;48.162;-1.978;2022-12-07T15:59:45;10.30;8.00
63289;DHT22;49412;48.162;-1.978;2022-12-07T16:02:10;9.70;37.40
63289;DHT22;49412;48.162;-1.978;2022-12-07T16:04:36;9.50;57.80
63289;DHT22;49412;48.162;-1.978;2022-12-07T16:07:02;9.10;72.40
63289;DHT22;49412;48.162;-1.978;2022-12-07T16:09:28;9.00;84.00
63289;DHT22;49412;48.162;-1.978;2022-12-07T16:11:53;9.20;77.10
63289;DHT22;49412;48.162;-1.978;2022-12-07T16:14:19;9.30;69.50
63289;DHT22;49412;48.162;-1.978;2022-12-07T16:16:45;9.40;60.00
63289;DHT22;49412;48.162;-1.978;2022-12-07T16:19:11;9.20;55.30
63289;DHT22;49412;48.162;-1.978;2022-12-07T16:21:37;9.30;51.10
63289;DHT22;49412;48.162;-1.978;2022-12-07T16:24:03;9.10;56.00
63289;DHT22;49412;48.162;-1.978;2022-12-07T16:26:28;8.90;54.70
63289;DHT22;49412;48.162;-1.978;2022-12-07T16:28:54;8.80;65.00
63289;DHT22;49412;48.162;-1.978;2022-12-07T16:31:21;8.50;74.30
63289;DHT22;49412;48.162;-1.978;2022-12-07T16:33:47;8.20;86.40
63289;DHT22;49412;48.162;-1.978;2022-12-07T16:36:14;8.20;71.00
63289;DHT22;49412;48.162;-1.978;2022-12-07T16:38:41;8.00;57.50
63289;DHT22;49412;48.162;-1.978;2022-12-07T16:41:08;7.90;71.10
63289;DHT22;49412;48.162;-1.978;2022-12-07T16:43:33;7.70;81.40
63289;DHT22;49412;48.162;-1.978;2022-12-07T16:45:59;7.30;95.20
63289;DHT22;49412;48.162;-1.978;2022-12-07T16:48:25;7.20;98.70
63289;DHT22;49412;48.162;-1.978;2022-12-07T16:50:50;7.20;96.80
63289;DHT22;49412;48.162;-1.978;2022-12-07T16:53:19;7.00;99.90
63289;DHT22;49412;48.162;-1.978;2022-12-07T16:55:44;6.80;99.90
63289;DHT22;49412;48.162;-1.978;2022-12-07T16:58:13;6.90;99.90
63289;DHT22;49412;48.162;-1.978;2022-12-07T17:00:40;6.90;99.90
63289;DHT22;49412;48.162;-1.978;2022-12-07T17:03:05;6.70;99.90
63289;DHT22;49412;48.162;-1.978;2022-12-07T17:05:31;6.70;99.90
63289;DHT22;49412;48.162;-1.978;2022-12-07T17:07:58;6.60;99.90
63289;DHT22;49412;48.162;-1.978;2022-12-07T17:10:24;6.30;99.90
63289;DHT22;49412;48.162;-1.978;2022-12-07T17:12:50;5.90;99.90
63289;DHT22;49412;48.162;-1.978;2022-12-07T17:15:16;5.70;99.90
63289;DHT22;49412;48.162;-1.978;2022-12-07T17:17:53;5.90;99.90
63289;DHT22;49412;48.162;-1.978;2022-12-07T17:20:20;6.00;99.90
63289;DHT22;49412;48.162;-1.978;2022-12-07T17:22:45;6.10;99.90
63289;DHT22;49412;48.162;-1.978;2022-12-07T17:25:11;6.20;99.90
63289;DHT22;49412;48.162;-1.978;2022-12-07T17:27:37;6.10;99.90
63289;DHT22;49412;48.162;-1.978;2022-12-07T17:30:03;5.70;99.90
63289;DHT22;49412;48.162;-1.978;2022-12-07T17:32:29;5.40;99.90
63289;DHT22;49412;48.162;-1.978;2022-12-07T17:34:55;5.60;99.90
63289;DHT22;49412;48.162;-1.978;2022-12-07T17:37:21;5.70;99.90
63289;DHT22;49412;48.162;-1.978;2022-12-07T17:39:46;5.40;99.90
63289;DHT22;49412;48.162;-1.978;2022-12-07T17:42:12;5.20;99.90